createdAt,value
2023-02-03T00:01:50.341Z,9.10
2023-02-03T00:04:17.037Z,9.10
2023-02-03T00:06:43.731Z,9.10
2023-02-03T00:09:10.583Z,9.10
2023-02-03T00:11:37.191Z,9.10
2023-02-03T00:14:05.407Z,9.10
2023-02-03T00:16:32.101Z,9.10
2023-02-03T00:18:58.824Z,9.20
2023-02-03T00:21:25.399Z,9.10
2023-02-03T00:23:52.011Z,9.10
2023-02-03T00:26:18.665Z,9.20
2023-02-03T00:28:45.572Z,9.20
2023-02-03T00:31:16.812Z,9.20
2023-02-03T00:33:43.546Z,9.20
2023-02-03T00:36:10.406Z,9.20
2023-02-03T00:38:37.053Z,9.20
2023-02-03T00:41:03.863Z,9.20
2023-02-03T00:43:30.826Z,9.20
2023-02-03T00:45:57.819Z,9.20
2023-02-03T00:48:24.641Z,9.20
2023-02-03T00:50:51.429Z,9.30
2023-02-03T00:53:18.256Z,9.30
2023-02-03T00:55:44.995Z,9.30
2023-02-03T00:58:11.999Z,9.30
2023-02-03T01:00:38.835Z,9.30
2023-02-03T01:03:08.332Z,9.30
2023-02-03T01:05:35.182Z,9.30
2023-02-03T01:08:02.044Z,9.20
2023-02-03T01:10:29.445Z,9.20
2023-02-03T01:12:56.414Z,9.30
2023-02-03T01:15:23.340Z,9.20
2023-02-03T01:17:50.145Z,9.20
2023-02-03T01:20:17.249Z,9.20
2023-02-03T01:22:44.043Z,9.20
2023-02-03T01:25:13.417Z,9.30
2023-02-03T01:27:40.124Z,9.30
2023-02-03T01:30:07.187Z,9.30
2023-02-03T01:32:33.969Z,9.30
2023-02-03T01:35:00.925Z,9.30
2023-02-03T01:37:27.805Z,9.30
2023-02-03T01:39:54.742Z,9.40
2023-02-03T01:42:21.657Z,9.40
2023-02-03T01:44:51.050Z,9.30
2023-02-03T01:47:24.117Z,9.30
2023-02-03T01:49:59.778Z,9.30
2023-02-03T01:52:27.330Z,9.40
2023-02-03T01:54:55.153Z,9.30
2023-02-03T01:57:23.095Z,9.30
2023-02-03T01:59:51.442Z,9.30
2023-02-03T02:02:18.040Z,9.30
2023-02-03T02:05:00.120Z,9.30
2023-02-03T02:07:26.773Z,9.30
2023-02-03T02:09:54.904Z,9.30
2023-02-03T02:12:21.468Z,9.30
2023-02-03T02:14:48.138Z,9.30
2023-02-03T02:17:26.671Z,9.30
2023-02-03T02:20:20.735Z,9.40
2023-02-03T02:23:06.264Z,9.40
2023-02-03T02:25:35.836Z,9.30
2023-02-03T02:28:21.362Z,9.30
2023-02-03T02:31:06.442Z,9.30
2023-02-03T02:33:54.313Z,9.40
2023-02-03T02:36:35.288Z,9.40
2023-02-03T02:39:01.868Z,9.30
2023-02-03T02:41:37.882Z,9.40
2023-02-03T02:44:09.843Z,9.30
2023-02-03T02:46:36.430Z,9.40
2023-02-03T02:49:02.967Z,9.40
2023-02-03T02:51:30.049Z,9.30
2023-02-03T02:53:58.691Z,9.30
2023-02-03T02:56:27.165Z,9.30
2023-02-03T02:58:54.686Z,9.30
2023-02-03T03:01:21.603Z,9.40
2023-02-03T03:03:48.233Z,9.40
2023-02-03T03:06:41.163Z,9.40
2023-02-03T03:09:10.658Z,9.30
2023-02-03T03:11:41.558Z,9.40
2023-02-03T03:14:10.184Z,9.30
2023-02-03T03:16:38.375Z,9.40
2023-02-03T03:19:09.915Z,9.40
2023-02-03T03:21:39.935Z,9.40
2023-02-03T03:24:10.518Z,9.40
2023-02-03T03:27:00.609Z,9.40
2023-02-03T03:29:27.639Z,9.40
2023-02-03T03:31:54.792Z,9.40
2023-02-03T03:34:21.843Z,9.40
2023-02-03T03:36:53.756Z,9.50
2023-02-03T03:39:24.540Z,9.50
2023-02-03T03:42:03.328Z,9.40
2023-02-03T03:44:33.125Z,9.40
2023-02-03T03:47:06.021Z,9.40
2023-02-03T03:49:36.351Z,9.40
2023-02-03T03:52:05.613Z,9.40
2023-02-03T03:54:32.792Z,9.40
2023-02-03T03:57:05.613Z,9.40
2023-02-03T03:59:35.006Z,9.40
2023-02-03T04:02:04.945Z,9.40
2023-02-03T04:04:36.646Z,9.40
2023-02-03T04:07:05.957Z,9.40
2023-02-03T04:09:32.793Z,9.40
2023-02-03T04:12:02.186Z,9.40
2023-02-03T04:14:30.302Z,9.40
2023-02-03T04:16:57.773Z,9.40
2023-02-03T04:19:24.689Z,9.40
2023-02-03T04:21:51.491Z,9.40
2023-02-03T04:24:18.375Z,9.40
2023-02-03T04:26:45.134Z,9.30
2023-02-03T04:29:12.170Z,9.30
2023-02-03T04:31:39.140Z,9.30
2023-02-03T04:34:06.259Z,9.30
2023-02-03T04:36:33.212Z,9.30
2023-02-03T04:39:01.429Z,9.30
2023-02-03T04:41:28.307Z,9.30
2023-02-03T04:43:55.192Z,9.30
2023-02-03T04:46:22.485Z,9.40
2023-02-03T04:48:49.337Z,9.30
2023-02-03T04:51:16.280Z,9.40
2023-02-03T04:53:43.051Z,9.30
2023-02-03T04:56:09.883Z,9.30
2023-02-03T04:58:37.170Z,9.40
2023-02-03T05:01:10.383Z,9.40
2023-02-03T05:03:43.049Z,9.40
2023-02-03T05:06:09.870Z,9.30
2023-02-03T05:08:36.721Z,9.40
2023-02-03T05:11:04.690Z,9.40
2023-02-03T05:13:31.768Z,9.40
2023-02-03T05:15:58.406Z,9.40
2023-02-03T05:18:24.992Z,9.40
2023-02-03T05:20:51.493Z,9.40
2023-02-03T05:23:18.022Z,9.40
2023-02-03T05:25:45.018Z,9.40
2023-02-03T05:28:11.641Z,9.40
2023-02-03T05:30:38.339Z,9.40
2023-02-03T05:33:04.908Z,9.40
2023-02-03T05:35:31.496Z,9.40
2023-02-03T05:37:59.388Z,9.40
2023-02-03T05:40:44.721Z,9.40
2023-02-03T05:43:11.319Z,9.40
2023-02-03T05:45:38.108Z,9.40
2023-02-03T05:48:05.046Z,9.40
2023-02-03T05:50:36.245Z,9.40
2023-02-03T05:53:05.443Z,9.40
2023-02-03T05:55:32.195Z,9.50
2023-02-03T05:57:59.867Z,9.40
2023-02-03T06:00:27.345Z,9.40
2023-02-03T06:02:58.738Z,9.40
2023-02-03T06:05:25.878Z,9.40
2023-02-03T06:07:52.612Z,9.40
2023-02-03T06:10:19.484Z,9.40
2023-02-03T06:12:46.243Z,9.50
2023-02-03T06:15:12.869Z,9.50
2023-02-03T06:17:39.497Z,9.40
2023-02-03T06:20:07.431Z,9.40
2023-02-03T06:22:34.394Z,9.40
2023-02-03T06:25:01.008Z,9.50
2023-02-03T06:27:27.589Z,9.50
2023-02-03T06:29:54.294Z,9.50
2023-02-03T06:32:20.841Z,9.50
2023-02-03T06:34:47.403Z,9.50
2023-02-03T06:37:14.012Z,9.50
2023-02-03T06:39:40.633Z,9.50
2023-02-03T06:42:07.229Z,9.50
2023-02-03T06:44:33.826Z,9.50
2023-02-03T06:47:01.993Z,9.50
2023-02-03T06:49:28.907Z,9.50
2023-02-03T06:51:55.498Z,9.50
2023-02-03T06:54:22.142Z,9.50
2023-02-03T06:56:48.726Z,9.50
2023-02-03T06:59:15.359Z,9.50
2023-02-03T07:01:41.984Z,9.50
2023-02-03T07:04:08.848Z,9.50
2023-02-03T07:06:35.454Z,9.50
2023-02-03T07:09:02.778Z,9.50
2023-02-03T07:11:29.513Z,9.50
2023-02-03T07:13:56.182Z,9.50
2023-02-03T07:16:23.114Z,9.50
2023-02-03T07:18:49.754Z,9.50
2023-02-03T07:21:16.887Z,9.60
2023-02-03T07:23:43.664Z,9.60
2023-02-03T07:26:10.873Z,9.60
2023-02-03T07:28:37.473Z,9.60
2023-02-03T07:31:10.236Z,9.60
2023-02-03T07:33:37.654Z,9.50
2023-02-03T07:36:04.470Z,9.60
2023-02-03T07:38:31.075Z,9.60
2023-02-03T07:40:57.668Z,9.60
2023-02-03T07:43:24.265Z,9.60
2023-02-03T07:45:50.834Z,9.70
2023-02-03T07:48:17.429Z,9.70
2023-02-03T07:50:45.701Z,9.70
2023-02-03T07:53:12.392Z,9.70
2023-02-03T07:55:39.939Z,9.70
2023-02-03T07:58:06.885Z,9.80
2023-02-03T08:00:34.063Z,9.70
2023-02-03T08:03:00.774Z,9.70
2023-02-03T08:05:27.425Z,9.70
2023-02-03T08:07:53.997Z,9.80
2023-02-03T08:13:11.385Z,9.80
2023-02-03T08:15:38.163Z,9.80
2023-02-03T08:18:05.004Z,9.80
2023-02-03T08:20:31.749Z,9.80
2023-02-03T08:23:01.397Z,9.90
2023-02-03T08:25:28.275Z,9.90
2023-02-03T08:27:55.014Z,9.80
2023-02-03T08:30:22.301Z,9.80
2023-02-03T08:32:49.076Z,9.80
2023-02-03T08:35:15.735Z,9.90
2023-02-03T08:37:42.726Z,9.90
2023-02-03T08:40:10.285Z,9.90
2023-02-03T08:42:39.323Z,9.90
2023-02-03T08:45:06.210Z,9.90
2023-02-03T08:47:36.817Z,9.90
2023-02-03T08:50:18.447Z,9.90
2023-02-03T08:52:48.039Z,9.90
2023-02-03T08:55:15.422Z,10.00
2023-02-03T08:57:45.146Z,10.00
2023-02-03T09:00:19.761Z,10.00
2023-02-03T09:02:46.547Z,9.90
2023-02-03T09:05:16.068Z,10.00
2023-02-03T09:07:48.156Z,9.90
2023-02-03T09:10:20.969Z,10.00
2023-02-03T09:12:48.069Z,10.00
2023-02-03T09:15:20.881Z,10.00
2023-02-03T09:17:51.370Z,9.90
2023-02-03T09:20:21.669Z,10.00
2023-02-03T09:22:51.186Z,9.90
2023-02-03T09:25:18.397Z,9.90
2023-02-03T09:27:45.284Z,10.00
2023-02-03T09:30:19.576Z,9.90
2023-02-03T09:32:48.981Z,9.90
2023-02-03T09:35:15.841Z,9.90
2023-02-03T09:37:42.691Z,9.90
2023-02-03T09:40:18.306Z,9.90
2023-02-03T09:42:51.201Z,9.90
2023-02-03T09:45:35.659Z,9.90
2023-02-03T09:48:09.207Z,9.90
2023-02-03T09:50:38.799Z,9.80
2023-02-03T09:53:10.493Z,9.80
2023-02-03T09:55:43.148Z,9.90
2023-02-03T09:58:13.715Z,9.80
2023-02-03T10:00:44.972Z,9.80
2023-02-03T10:03:21.609Z,9.90
2023-02-03T10:06:04.689Z,9.90
2023-02-03T10:08:42.036Z,9.80
2023-02-03T10:11:29.513Z,9.90
2023-02-03T10:14:14.539Z,9.90
2023-02-03T10:16:50.494Z,9.90
2023-02-03T10:19:20.747Z,9.90
2023-02-03T10:21:50.012Z,9.90
2023-02-03T10:24:22.305Z,9.90
2023-02-03T10:26:49.568Z,9.90
2023-02-03T10:29:19.533Z,10.00
2023-02-03T10:31:47.683Z,9.90
2023-02-03T10:34:18.695Z,10.00
2023-02-03T10:37:03.675Z,9.90
2023-02-03T10:39:50.392Z,10.00
2023-02-03T10:42:17.973Z,9.90
2023-02-03T10:45:07.220Z,9.90
2023-02-03T10:47:39.332Z,9.90
2023-02-03T10:50:18.209Z,9.90
2023-02-03T10:52:45.041Z,9.90
2023-02-03T10:55:27.016Z,10.00
2023-02-03T10:57:54.606Z,10.00
2023-02-03T11:00:29.346Z,10.10
2023-02-03T11:03:04.785Z,10.20
2023-02-03T11:05:31.755Z,10.30
2023-02-03T11:07:58.712Z,10.30
2023-02-03T11:10:35.865Z,10.50
2023-02-03T11:13:22.275Z,10.60
2023-02-03T11:15:55.911Z,10.60
2023-02-03T11:18:29.838Z,10.50
2023-02-03T11:20:58.373Z,10.60
2023-02-03T11:23:25.619Z,10.60
2023-02-03T11:25:52.458Z,10.70
2023-02-03T11:28:19.447Z,10.60
2023-02-03T11:30:46.488Z,10.50
2023-02-03T11:33:18.692Z,10.40
2023-02-03T11:36:16.185Z,10.30
2023-02-03T11:38:44.849Z,10.40
2023-02-03T11:44:10.307Z,10.40
2023-02-03T11:46:37.869Z,10.50
2023-02-03T11:49:11.679Z,10.50
2023-02-03T11:51:49.271Z,10.50
2023-02-03T11:54:26.566Z,10.40
2023-02-03T11:57:02.583Z,10.30
2023-02-03T11:59:41.671Z,10.30
2023-02-03T12:02:27.339Z,10.30
2023-02-03T12:05:19.517Z,10.30
2023-02-03T12:07:55.275Z,10.30
2023-02-03T12:10:28.490Z,10.30
2023-02-03T12:13:07.472Z,10.20
2023-02-03T12:16:00.506Z,10.20
2023-02-03T12:18:46.070Z,10.20
2023-02-03T12:21:29.430Z,10.20
2023-02-03T12:23:55.955Z,10.10
2023-02-03T12:26:24.133Z,10.10
2023-02-03T12:28:56.638Z,10.00
2023-02-03T12:31:29.520Z,10.00
2023-02-03T12:34:01.722Z,10.00
2023-02-03T12:36:35.596Z,10.10
2023-02-03T12:39:20.869Z,10.10
2023-02-03T12:44:22.036Z,10.10
2023-02-03T12:46:56.242Z,10.10
2023-02-03T12:49:29.073Z,10.00
2023-02-03T12:52:07.691Z,10.00
2023-02-03T12:54:53.470Z,10.00
2023-02-03T12:57:30.689Z,10.10
2023-02-03T13:00:07.546Z,10.00
2023-02-03T13:02:41.101Z,10.00
2023-02-03T13:05:26.955Z,10.10
2023-02-03T13:08:00.829Z,10.10
2023-02-03T13:10:32.528Z,10.10
2023-02-03T13:12:59.891Z,10.10
2023-02-03T13:15:26.691Z,10.10
2023-02-03T13:17:59.504Z,10.10
2023-02-03T13:20:29.307Z,10.10
2023-02-03T13:22:56.257Z,10.10
2023-02-03T13:25:31.863Z,10.10
2023-02-03T13:28:05.787Z,10.10
2023-02-03T13:30:38.500Z,10.10
2023-02-03T13:33:14.614Z,10.10
2023-02-03T13:35:56.302Z,10.00
2023-02-03T13:38:27.174Z,10.00
2023-02-03T13:41:10.705Z,10.00
2023-02-03T13:43:40.682Z,10.00
2023-02-03T13:46:11.151Z,9.90
2023-02-03T13:48:44.407Z,9.90
2023-02-03T13:51:14.183Z,9.90
2023-02-03T13:53:43.773Z,10.00
2023-02-03T13:56:19.529Z,9.90
2023-02-03T13:58:58.785Z,9.90
2023-02-03T14:01:30.464Z,9.80
2023-02-03T14:03:57.927Z,9.80
2023-02-03T14:06:45.727Z,9.80
2023-02-03T14:09:18.641Z,9.70
2023-02-03T14:11:46.413Z,9.70
2023-02-03T14:14:13.130Z,9.70
2023-02-03T14:16:41.319Z,9.60
2023-02-03T14:19:11.510Z,9.60
2023-02-03T14:21:41.723Z,9.50
2023-02-03T14:24:12.212Z,9.50
2023-02-03T14:26:43.460Z,9.50
2023-02-03T14:29:11.324Z,9.50
2023-02-03T14:31:56.149Z,9.50
2023-02-03T14:34:32.249Z,9.50
2023-02-03T14:37:10.358Z,9.50
2023-02-03T14:39:43.366Z,9.50
2023-02-03T14:42:18.816Z,9.50
2023-02-03T14:44:48.693Z,9.50
2023-02-03T14:47:25.137Z,9.50
2023-02-03T14:49:51.683Z,9.50
2023-02-03T14:52:27.308Z,9.50
2023-02-03T14:55:14.780Z,9.50
2023-02-03T14:57:44.902Z,9.50
2023-02-03T15:00:21.655Z,9.40
2023-02-03T15:03:06.724Z,9.40
2023-02-03T15:05:33.336Z,9.30
2023-02-03T15:08:02.456Z,9.30
2023-02-03T15:10:43.482Z,9.30
2023-02-03T15:13:29.171Z,9.40
2023-02-03T15:15:59.797Z,9.40
2023-02-03T15:18:30.917Z,9.40
2023-02-03T15:20:57.886Z,9.30
2023-02-03T15:23:24.504Z,9.30
2023-02-03T15:25:58.912Z,9.30
2023-02-03T15:28:26.283Z,9.30
2023-02-03T15:31:03.844Z,9.30
2023-02-03T15:33:31.429Z,9.30
2023-02-03T15:36:02.030Z,9.30
2023-02-03T15:38:36.499Z,9.40
2023-02-03T15:41:03.936Z,9.40
2023-02-03T15:43:42.039Z,9.50
2023-02-03T15:46:17.939Z,9.50
2023-02-03T15:49:22.990Z,9.50
2023-02-03T15:51:51.733Z,9.60
2023-02-03T15:54:30.985Z,9.60
2023-02-03T15:56:59.145Z,9.60
2023-02-03T15:59:29.214Z,9.60
2023-02-03T16:01:56.178Z,9.70
2023-02-03T16:04:24.467Z,9.70
2023-02-03T16:06:52.185Z,9.60
2023-02-03T16:09:29.613Z,9.70
2023-02-03T16:12:05.935Z,9.60
2023-02-03T16:14:34.154Z,9.60
2023-02-03T16:17:05.477Z,9.70
2023-02-03T16:19:38.261Z,9.70
2023-02-03T16:22:05.528Z,9.70
2023-02-03T16:24:32.337Z,9.70
2023-02-03T16:27:17.731Z,9.70
2023-02-03T16:30:03.023Z,9.70
2023-02-03T16:32:48.620Z,9.70
2023-02-03T16:35:33.741Z,9.70
2023-02-03T16:38:26.211Z,9.70
2023-02-03T16:41:11.415Z,9.60
2023-02-03T16:43:56.601Z,9.60
2023-02-03T16:46:41.856Z,9.60
2023-02-03T16:49:27.248Z,9.60
2023-02-03T16:51:54.088Z,9.50
2023-02-03T16:54:20.942Z,9.40
2023-02-03T16:56:47.926Z,9.40
2023-02-03T16:59:15.468Z,9.30
2023-02-03T17:01:48.637Z,9.20
2023-02-03T17:04:15.515Z,9.20
2023-02-03T17:06:44.223Z,9.10
2023-02-03T17:09:13.840Z,9.00
2023-02-03T17:11:43.693Z,9.00
2023-02-03T17:14:10.633Z,9.00
2023-02-03T17:16:37.577Z,9.00
2023-02-03T17:19:04.615Z,9.00
2023-02-03T17:21:31.718Z,8.90
2023-02-03T17:24:02.014Z,8.90
2023-02-03T17:26:28.897Z,8.90
2023-02-03T17:29:03.081Z,8.80
2023-02-03T17:31:32.856Z,8.80
2023-02-03T17:34:01.853Z,8.80
2023-02-03T17:36:28.618Z,8.80
2023-02-03T17:55:24.356Z,8.60
2023-02-03T17:57:51.082Z,8.60
2023-02-03T18:00:17.818Z,8.60
2023-02-03T18:02:44.455Z,8.60
2023-02-03T18:05:11.242Z,8.70
2023-02-03T18:07:37.821Z,8.70
2023-02-03T18:10:04.589Z,8.70
2023-02-03T18:12:31.170Z,8.70
2023-02-03T18:14:57.936Z,8.80
2023-02-03T18:17:24.793Z,8.70
2023-02-03T18:19:55.798Z,8.80
2023-02-03T18:22:23.130Z,8.80
2023-02-03T18:30:21.663Z,8.80
2023-02-03T18:32:52.462Z,8.80
2023-02-03T18:35:19.359Z,8.80
2023-02-03T18:37:46.596Z,8.80
2023-02-03T18:40:13.280Z,8.80
2023-02-03T18:42:39.836Z,8.80
2023-02-03T18:45:06.617Z,8.80
2023-02-03T18:47:33.587Z,8.80
2023-02-03T18:50:00.188Z,8.80
2023-02-03T18:52:27.332Z,8.80
2023-02-03T18:54:53.993Z,8.80
2023-02-03T18:57:22.464Z,8.80
2023-02-03T18:59:49.316Z,8.80
2023-02-03T19:02:15.885Z,8.80
2023-02-03T19:10:03.233Z,8.80
2023-02-03T19:12:29.746Z,8.80
2023-02-03T19:14:56.317Z,8.80
2023-02-03T19:17:23.416Z,8.90
2023-02-03T19:19:50.001Z,8.90
2023-02-03T19:22:16.518Z,8.90
2023-02-03T19:24:43.139Z,8.90
2023-02-03T19:27:09.655Z,8.90
2023-02-03T19:29:38.437Z,8.80
2023-02-03T19:32:05.162Z,8.80
2023-02-03T19:34:31.843Z,8.80
2023-02-03T19:36:59.034Z,8.80
2023-02-03T19:39:25.584Z,8.80
2023-02-03T19:41:52.081Z,8.80
2023-02-03T19:44:18.647Z,8.80
2023-02-03T19:46:45.331Z,8.80
2023-02-03T19:49:13.228Z,8.80
2023-02-03T19:51:40.055Z,8.90
2023-02-03T19:54:06.932Z,8.90
2023-02-03T19:56:33.618Z,8.90
2023-02-03T19:59:00.176Z,9.00
2023-02-03T20:01:27.332Z,9.00
2023-02-03T20:03:53.967Z,9.00
2023-02-03T20:06:20.468Z,9.10
2023-02-03T20:11:41.437Z,9.10
2023-02-03T20:14:08.144Z,9.10
2023-02-03T20:16:34.911Z,9.10
2023-02-03T20:19:03.948Z,9.10
2023-02-03T20:21:30.566Z,9.10
2023-02-03T20:23:57.432Z,9.10
2023-02-03T20:26:24.142Z,9.10
2023-02-03T20:28:50.875Z,9.20
2023-02-03T20:31:17.652Z,9.20
2023-02-03T20:33:44.459Z,9.20
2023-02-03T20:36:12.266Z,9.10
2023-02-03T20:38:42.022Z,9.10
2023-02-03T20:41:11.922Z,9.10
2023-02-03T20:43:38.892Z,9.20
2023-02-03T20:46:12.476Z,9.10
2023-02-03T20:48:39.311Z,9.10
2023-02-03T20:51:16.209Z,9.10
2023-02-03T20:53:44.262Z,9.10
2023-02-03T20:56:15.464Z,9.10
2023-02-03T20:58:47.955Z,9.10
2023-02-03T21:01:16.236Z,9.10
2023-02-03T21:04:01.687Z,9.10
2023-02-03T21:06:29.570Z,9.10
2023-02-03T21:09:21.463Z,9.10
2023-02-03T21:11:48.304Z,9.10
2023-02-03T21:14:17.365Z,9.10
2023-02-03T21:16:44.173Z,9.10
2023-02-03T21:19:26.034Z,9.10
2023-02-03T21:21:53.180Z,9.10
2023-02-03T21:24:32.622Z,9.10
2023-02-03T21:27:00.592Z,9.10
2023-02-03T21:29:32.326Z,9.00
2023-02-03T21:31:59.282Z,9.10
2023-02-03T21:34:27.852Z,9.10
2023-02-03T21:36:55.382Z,9.10
2023-02-03T21:41:50.054Z,9.00
2023-02-03T21:44:38.140Z,9.00
2023-02-03T21:47:05.775Z,9.00
2023-02-03T21:49:33.742Z,9.00
2023-02-03T21:52:00.321Z,9.00
2023-02-03T21:54:33.411Z,9.00
2023-02-03T21:57:00.668Z,8.90
2023-02-03T21:59:33.165Z,8.90
2023-02-03T22:02:03.407Z,9.00
2023-02-03T22:04:30.723Z,9.00
2023-02-03T22:06:57.257Z,8.90
2023-02-03T22:09:25.461Z,9.00
2023-02-03T22:11:52.477Z,8.90
2023-02-03T22:14:20.950Z,8.90
2023-02-03T22:16:47.537Z,8.90
2023-02-03T22:19:14.544Z,8.90
2023-02-03T22:21:41.066Z,8.90
2023-02-03T22:24:07.746Z,8.90
2023-02-03T22:26:34.240Z,8.90
2023-02-03T22:29:00.873Z,8.90
2023-02-03T22:31:27.485Z,8.80
2023-02-03T22:33:54.097Z,8.80
2023-02-03T22:36:23.241Z,8.80
2023-02-03T22:38:49.769Z,8.80
2023-02-03T22:41:16.309Z,8.80
2023-02-03T22:43:43.080Z,8.80
2023-02-03T22:46:09.703Z,8.80
2023-02-03T22:48:36.448Z,8.80
2023-02-03T22:51:03.088Z,8.80
2023-02-03T22:53:29.739Z,8.80
2023-02-03T22:55:56.234Z,8.70
2023-02-03T22:58:22.830Z,8.70
2023-02-03T23:00:49.301Z,8.70
2023-02-03T23:03:16.288Z,8.70
2023-02-03T23:05:43.105Z,8.70
2023-02-03T23:08:10.067Z,8.70
2023-02-03T23:10:36.826Z,8.70
2023-02-03T23:13:03.658Z,8.70
2023-02-03T23:15:30.483Z,8.70
2023-02-03T23:17:57.384Z,8.70
2023-02-03T23:20:24.203Z,8.70
2023-02-03T23:22:51.032Z,8.70
2023-02-03T23:25:17.834Z,8.70
2023-02-03T23:27:44.884Z,8.70
2023-02-03T23:30:12.040Z,8.70
2023-02-03T23:32:38.883Z,8.70
2023-02-03T23:35:24.547Z,8.70
2023-02-03T23:37:51.316Z,8.70
2023-02-03T23:40:18.144Z,8.70
2023-02-03T23:42:44.932Z,8.60
2023-02-03T23:45:12.692Z,8.60
2023-02-03T23:47:40.608Z,8.60
2023-02-03T23:50:08.705Z,8.50
2023-02-03T23:52:35.814Z,8.50
2023-02-03T23:55:05.381Z,8.50
2023-02-03T23:57:32.113Z,8.50
2023-02-03T23:59:59.104Z,8.40
